createdAt,value
2022-08-05T00:04:57.102Z,22.60
2022-08-05T00:09:59.295Z,22.50
2022-08-05T00:15:54.214Z,22.40
2022-08-05T00:20:23.438Z,22.30
2022-08-05T00:25:45.567Z,22.20
2022-08-05T00:30:52.075Z,22.10
2022-08-05T00:36:15.989Z,22.00
2022-08-05T00:41:51.546Z,21.90
2022-08-05T00:47:03.893Z,21.80
2022-08-05T00:52:07.870Z,21.70
2022-08-05T00:57:09.745Z,21.60
2022-08-05T01:02:11.945Z,21.50
2022-08-05T01:07:14.022Z,21.40
2022-08-05T01:12:22.357Z,21.38
2022-08-05T01:17:53.796Z,21.30
2022-08-05T01:23:14.386Z,21.20
2022-08-05T01:29:04.218Z,21.00
2022-08-05T01:34:29.981Z,20.80
2022-08-05T01:39:46.453Z,20.68
2022-08-05T01:44:53.818Z,20.52
2022-08-05T01:50:02.791Z,20.50
2022-08-05T01:55:12.607Z,20.40
2022-08-05T02:00:15.627Z,20.30
2022-08-05T02:05:23.478Z,20.20
2022-08-05T02:10:32.775Z,20.00
2022-08-05T02:15:43.558Z,19.70
2022-08-05T02:20:53.926Z,19.60
2022-08-05T02:26:04.740Z,19.70
2022-08-05T02:31:28.321Z,19.80
2022-08-05T02:36:34.989Z,19.72
2022-08-05T02:41:57.626Z,19.70
2022-08-05T02:47:09.414Z,19.70
2022-08-05T02:52:29.290Z,19.70
2022-08-05T02:58:12.113Z,19.70
2022-08-05T03:02:58.585Z,19.68
2022-08-05T03:08:08.766Z,19.64
2022-08-05T03:13:17.052Z,19.60
2022-08-05T03:18:19.034Z,19.56
2022-08-05T03:23:34.301Z,19.44
2022-08-05T03:28:37.099Z,19.38
2022-08-05T03:33:51.183Z,19.30
2022-08-05T03:38:55.219Z,19.40
2022-08-05T03:44:08.633Z,19.40
2022-08-05T03:49:14.977Z,19.40
2022-08-05T03:55:07.228Z,19.34
2022-08-05T03:59:57.989Z,19.40
2022-08-05T04:05:02.861Z,19.40
2022-08-05T04:10:06.253Z,19.36
2022-08-05T04:15:15.437Z,19.40
2022-08-05T04:20:22.133Z,19.40
2022-08-05T04:25:56.592Z,19.40
2022-08-05T04:30:48.614Z,19.40
2022-08-05T04:36:16.439Z,19.40
2022-08-05T04:41:13.539Z,19.56
2022-08-05T04:46:28.430Z,19.70
2022-08-05T04:51:31.616Z,19.90
2022-08-05T04:56:37.007Z,20.18
2022-08-05T05:02:08.159Z,20.50
2022-08-05T05:07:01.326Z,20.80
2022-08-05T05:12:06.318Z,21.02
2022-08-05T05:17:09.543Z,21.20
2022-08-05T05:22:23.797Z,21.30
2022-08-05T05:27:44.286Z,21.50
2022-08-05T05:32:47.153Z,21.70
2022-08-05T05:38:00.021Z,21.80
2022-08-05T05:43:04.337Z,21.90
2022-08-05T05:48:10.603Z,22.10
2022-08-05T05:53:22.147Z,22.30
2022-08-05T05:58:30.286Z,22.40
2022-08-05T06:03:54.407Z,22.60
2022-08-05T06:08:55.918Z,22.80
2022-08-05T06:13:58.182Z,23.00
2022-08-05T06:19:11.351Z,23.36
2022-08-05T06:24:15.864Z,23.40
2022-08-05T06:29:25.525Z,23.60
2022-08-05T06:34:45.036Z,23.80
2022-08-05T06:39:50.692Z,24.00
2022-08-05T06:44:53.894Z,24.20
2022-08-05T06:50:01.444Z,24.50
2022-08-05T06:55:07.234Z,24.70
2022-08-05T07:00:11.590Z,24.90
2022-08-05T07:05:18.943Z,25.10
2022-08-05T07:10:30.478Z,25.40
2022-08-05T07:16:01.734Z,25.60
2022-08-05T07:21:08.385Z,25.80
2022-08-05T07:26:13.299Z,26.02
2022-08-05T07:31:18.675Z,26.30
2022-08-05T07:36:42.726Z,26.52
2022-08-05T07:42:14.719Z,26.70
2022-08-05T07:47:10.166Z,27.00
2022-08-05T07:52:17.283Z,27.20
2022-08-05T07:57:41.529Z,27.40
2022-08-05T08:03:14.850Z,27.68
2022-08-05T08:08:12.353Z,27.90
2022-08-05T08:13:22.100Z,28.20
2022-08-05T08:18:32.620Z,28.40
2022-08-05T08:24:01.801Z,28.60
2022-08-05T08:29:29.319Z,28.80
2022-08-05T08:34:30.602Z,29.00
2022-08-05T08:39:37.549Z,29.22
2022-08-05T08:45:22.446Z,29.50
2022-08-05T08:50:30.437Z,29.70
2022-08-05T08:56:04.014Z,29.90
2022-08-05T09:00:58.849Z,30.10
2022-08-05T09:06:07.694Z,30.30
2022-08-05T09:11:13.849Z,30.50
2022-08-05T09:16:17.822Z,30.70
2022-08-05T09:22:24.960Z,30.88
2022-08-05T09:26:56.945Z,31.10
2022-08-05T09:32:41.353Z,31.30
2022-08-05T09:38:17.233Z,31.52
2022-08-05T09:42:53.935Z,31.80
2022-08-05T09:47:57.537Z,31.90
2022-08-05T09:53:01.209Z,32.00
2022-08-05T09:58:16.214Z,32.20
2022-08-05T10:03:21.256Z,32.40
2022-08-05T10:08:36.156Z,32.60
2022-08-05T10:13:45.697Z,32.80
2022-08-05T10:18:51.777Z,32.90
2022-08-05T10:24:00.386Z,33.00
2022-08-05T10:29:04.313Z,33.20
2022-08-05T10:34:10.138Z,33.34
2022-08-05T10:39:58.913Z,33.60
2022-08-05T10:44:57.623Z,33.98
2022-08-05T10:50:32.175Z,34.20
2022-08-05T10:55:26.469Z,34.30
2022-08-05T11:00:31.087Z,34.40
2022-08-05T11:05:35.892Z,34.60
2022-08-05T11:11:00.059Z,34.60
2022-08-05T11:16:33.937Z,34.72
2022-08-05T11:21:49.554Z,35.00
2022-08-05T11:27:51.036Z,35.10
2022-08-05T11:33:43.789Z,35.20
2022-08-05T11:38:51.927Z,35.30
2022-08-05T11:44:07.064Z,35.38
2022-08-05T11:49:14.796Z,35.70
2022-08-05T11:54:33.795Z,35.90
2022-08-05T11:59:41.280Z,36.30
2022-08-05T12:04:59.643Z,36.40
2022-08-05T12:10:09.544Z,36.30
2022-08-05T12:15:38.387Z,36.52
2022-08-05T12:20:43.381Z,36.60
2022-08-05T12:25:56.429Z,36.90
2022-08-05T12:31:02.428Z,37.10
2022-08-05T12:36:09.266Z,37.20
2022-08-05T12:41:14.909Z,37.38
2022-08-05T12:46:34.033Z,37.52
2022-08-05T12:52:12.790Z,37.70
2022-08-05T12:57:23.219Z,37.70
2022-08-05T13:02:30.449Z,37.80
2022-08-05T13:07:59.230Z,37.80
2022-08-05T13:12:58.448Z,37.90
2022-08-05T13:18:02.622Z,38.10
2022-08-05T13:23:07.351Z,38.40
2022-08-05T13:28:10.975Z,38.50
2022-08-05T13:34:22.197Z,38.50
2022-08-05T13:38:42.451Z,38.50
2022-08-05T13:43:54.502Z,38.70
2022-08-05T13:49:00.673Z,39.08
2022-08-05T13:54:12.310Z,39.30
2022-08-05T13:59:20.254Z,39.40
2022-08-05T14:04:43.382Z,38.98
2022-08-05T14:09:54.289Z,38.70
2022-08-05T14:14:58.092Z,38.60
2022-08-05T14:20:06.759Z,38.38
2022-08-05T14:25:19.242Z,38.10
2022-08-05T14:30:27.889Z,38.30
2022-08-05T14:35:50.317Z,38.80
2022-08-05T14:40:55.393Z,38.92
2022-08-05T14:45:59.739Z,39.30
2022-08-05T14:51:03.151Z,39.30
2022-08-05T14:56:06.870Z,39.20
2022-08-05T15:01:10.849Z,39.40
2022-08-05T15:06:19.938Z,39.30
2022-08-05T15:11:53.163Z,39.00
2022-08-05T15:16:56.767Z,38.80
2022-08-05T15:22:01.496Z,39.00
2022-08-05T15:27:04.859Z,39.00
2022-08-05T15:32:12.551Z,38.80
2022-08-05T15:37:19.354Z,38.90
2022-08-05T15:42:55.699Z,39.26
2022-08-05T15:48:04.378Z,39.60
2022-08-05T15:53:09.236Z,39.42
2022-08-05T15:58:16.708Z,39.44
2022-08-05T16:03:20.325Z,39.00
2022-08-05T16:08:24.250Z,38.94
2022-08-05T16:13:35.021Z,38.80
2022-08-05T16:18:52.747Z,38.50
2022-08-05T16:24:00.163Z,38.02
2022-08-05T16:29:06.271Z,37.70
2022-08-05T16:34:11.635Z,37.30
2022-08-05T16:39:15.815Z,37.08
2022-08-05T16:44:19.073Z,37.30
2022-08-05T16:49:26.785Z,37.60
2022-08-05T16:54:33.034Z,37.60
2022-08-05T17:00:00.322Z,37.40
2022-08-05T17:05:06.556Z,37.40
2022-08-05T17:10:10.601Z,37.20
2022-08-05T17:15:15.618Z,36.60
2022-08-05T17:20:22.900Z,36.10
2022-08-05T17:25:33.615Z,35.60
2022-08-05T17:30:42.413Z,35.40
2022-08-05T17:36:08.809Z,35.20
2022-08-05T17:42:18.235Z,35.00
2022-08-05T17:46:37.515Z,34.80
2022-08-05T17:51:41.747Z,34.60
2022-08-05T17:56:51.374Z,34.40
2022-08-05T18:01:54.614Z,34.20
2022-08-05T18:07:00.402Z,34.00
2022-08-05T18:12:05.700Z,33.90
2022-08-05T18:17:59.067Z,33.70
2022-08-05T18:22:36.201Z,33.60
2022-08-05T18:27:52.343Z,33.40
2022-08-05T18:33:00.313Z,33.10
2022-08-05T18:38:05.003Z,32.70
2022-08-05T18:43:09.154Z,32.30
2022-08-05T18:48:30.570Z,32.00
2022-08-05T18:53:45.681Z,31.64
2022-08-05T18:58:50.847Z,31.30
2022-08-05T19:03:56.946Z,31.00
2022-08-05T19:09:00.091Z,30.72
2022-08-05T19:14:15.258Z,30.60
2022-08-05T19:19:27.938Z,30.40
2022-08-05T19:24:34.648Z,30.30
2022-08-05T19:29:39.539Z,30.20
2022-08-05T19:34:54.366Z,30.00
2022-08-05T19:40:00.031Z,29.80
2022-08-05T19:45:05.617Z,29.60
2022-08-05T19:50:12.019Z,29.40
2022-08-05T19:56:14.386Z,29.20
2022-08-05T20:00:38.963Z,28.90
2022-08-05T20:05:51.246Z,28.60
2022-08-05T20:10:55.618Z,28.30
2022-08-05T20:15:59.744Z,28.10
2022-08-05T20:21:05.272Z,27.88
2022-08-05T20:26:15.299Z,27.60
2022-08-05T20:31:28.786Z,27.28
2022-08-05T20:36:45.266Z,26.90
2022-08-05T20:41:48.554Z,26.50
2022-08-05T20:46:51.865Z,26.10
2022-08-05T20:51:57.357Z,26.00
2022-08-05T20:57:05.334Z,26.10
2022-08-05T21:02:12.852Z,26.30
2022-08-05T21:07:21.792Z,26.34
2022-08-05T21:12:26.198Z,26.30
2022-08-05T21:17:30.152Z,26.20
2022-08-05T21:22:33.567Z,26.10
2022-08-05T21:27:38.992Z,26.00
2022-08-05T21:32:42.542Z,25.80
2022-08-05T21:37:47.141Z,25.68
2022-08-05T21:42:53.965Z,25.68
2022-08-05T21:47:57.970Z,25.70
2022-08-05T21:53:04.549Z,25.30
2022-08-05T21:58:24.831Z,25.10
2022-08-05T22:03:48.417Z,25.10
2022-08-05T22:08:54.977Z,25.10
2022-08-05T22:14:33.775Z,25.00
2022-08-05T22:20:02.074Z,24.80
2022-08-05T22:25:03.893Z,24.60
2022-08-05T22:30:15.343Z,24.42
2022-08-05T22:35:20.558Z,24.20
2022-08-05T22:40:28.187Z,24.20
2022-08-05T22:45:33.951Z,24.10
2022-08-05T22:50:40.409Z,23.90
2022-08-05T22:55:56.673Z,23.78
